Danville, VA (24540)

10:50 AM EDT on August 29, 2015 (GMT -0400)
Druid Hills | | Change Station
CLOSE
Current Station
Personal Weather Station
Location: Danville, VA
Elevation: 499 ft
Nearby Weather Stations

Elev 499 ft 36.56 °N, 79.42 °W | Updated 45 seconds ago

Clear
Clear
76.5 °F
Feels Like 78 °F
N
1.7
Wind Variable Wind from NW

Today
High -- | Low -- °F
--% Chance of Precip.
Yesterday
High -- | Low -- °F
Precip. -- in
6:46 AM 7:50 PM
Full, 100% visible
Pressure 30.22 in
Visibility 10.0 miles
Clouds Clear
Heat Index 78 °F
Dew Point 63 °F
Humidity 64%
Rainfall 0.00 in
Snow Depth Not available.
UV 4 out of 12
Pollen 8.50 out of 12
Air Quality Not available.
Flu Activity Not available.
METAR KDAN 291353Z AUTO 23003KT 10SM CLR 23/17 A3025 RMK AO2 SLP234 T02330167
Pressure 30.22 in
Visibility 10.0 miles
Clouds Clear
Heat Index 78 °F
Dew Point 63 °F
Humidity 64%
Rainfall 0.00 in
Snow Depth Not available.
UV 4 out of 12
Pollen 8.50 out of 12
Air Quality Not available.
Flu Activity Not available.
METAR KDAN 291353Z AUTO 23003KT 10SM CLR 23/17 A3025 RMK AO2 SLP234 T02330167

10-Day Weather Forecast

×

Almanac

Astronomy

Aug. 29, 2015 Rise Set
Actual Time
Civil Twilight
Nautical Twilight
Astronomical Twilight
Moon
Length of Visible Light
Length of Day
Tomorrow will be .
, % of the Moon is Illuminated

Today's Extremes

State Highs State Lows

Community

WunderPhotos

Upload Photos

1,850,707 photos uploaded!

WunderBlogs® & News

Nearby

Air Quality

  Air Quality AQ Index Pollutant
Not available.

Snow Depth

Station Depth Elevation

Earthquake Activity

City Distance Mag. Time & Date
Minimum magnitude displayed is 2.5.

Coastal Water Temperatures

Place Temperature

Stations

Nearby Weather Stations

Station Location Temp. Windchill Dew Point Humidity Wind Precip. Elev Updated Type